sensor_id;sensor_type;location;lat;lon;timestamp;pressure;altitude;pressure_sealevel;temperature;humidity
77939;BME280;67136;47.546;21.630;2023-06-05T00:00:25;100585.19;;;15.44;62.31
77939;BME280;67136;47.546;21.630;2023-06-05T00:03:29;100587.84;;;15.35;62.48
77939;BME280;67136;47.546;21.630;2023-06-05T00:06:32;100588.09;;;15.24;63.16
77939;BME280;67136;47.546;21.630;2023-06-05T00:09:35;100583.94;;;15.21;63.87
77939;BME280;67136;47.546;21.630;2023-06-05T00:12:38;100582.94;;;15.05;64.68
77939;BME280;67136;47.546;21.630;2023-06-05T00:15:41;100589.06;;;14.95;64.79
77939;BME280;67136;47.546;21.630;2023-06-05T00:18:43;100589.66;;;14.89;65.47
77939;BME280;67136;47.546;21.630;2023-06-05T00:21:49;100591.31;;;14.90;65.57
77939;BME280;67136;47.546;21.630;2023-06-05T00:24:55;100586.34;;;14.87;65.58
77939;BME280;67136;47.546;21.630;2023-06-05T00:27:57;100584.16;;;14.83;65.88
77939;BME280;67136;47.546;21.630;2023-06-05T00:31:01;100582.87;;;14.87;66.68
77939;BME280;67136;47.546;21.630;2023-06-05T00:34:04;100573.63;;;14.83;66.04
77939;BME280;67136;47.546;21.630;2023-06-05T00:37:06;100580.84;;;14.81;65.95
77939;BME280;67136;47.546;21.630;2023-06-05T00:40:09;100584.72;;;14.77;65.95
77939;BME280;67136;47.546;21.630;2023-06-05T00:43:11;100580.59;;;14.74;66.02
77939;BME280;67136;47.546;21.630;2023-06-05T00:46:14;100575.09;;;14.68;65.98
77939;BME280;67136;47.546;21.630;2023-06-05T00:49:18;100574.84;;;14.61;67.01
77939;BME280;67136;47.546;21.630;2023-06-05T00:52:22;100581.38;;;14.57;66.76
77939;BME280;67136;47.546;21.630;2023-06-05T00:55:25;100569.47;;;14.53;66.64
77939;BME280;67136;47.546;21.630;2023-06-05T00:58:29;100575.72;;;14.52;66.74
77939;BME280;67136;47.546;21.630;2023-06-05T01:01:33;100568.78;;;14.51;66.65
77939;BME280;67136;47.546;21.630;2023-06-05T01:04:39;100574.06;;;14.51;66.67
77939;BME280;67136;47.546;21.630;2023-06-05T01:07:46;100578.19;;;14.54;66.67
77939;BME280;67136;47.546;21.630;2023-06-05T01:10:52;100574.72;;;14.53;66.68
77939;BME280;67136;47.546;21.630;2023-06-05T01:14:06;100577.34;;;14.63;67.29
77939;BME280;67136;47.546;21.630;2023-06-05T01:17:12;100566.50;;;14.66;66.93
77939;BME280;67136;47.546;21.630;2023-06-05T01:20:15;100560.09;;;14.68;66.59
77939;BME280;67136;47.546;21.630;2023-06-05T01:23:22;100563.72;;;14.67;66.53
77939;BME280;67136;47.546;21.630;2023-06-05T01:26:36;100568.16;;;14.67;67.03
77939;BME280;67136;47.546;21.630;2023-06-05T01:29:59;100559.88;;;14.62;66.82
77939;BME280;67136;47.546;21.630;2023-06-05T01:33:12;100571.91;;;14.64;66.41
77939;BME280;67136;47.546;21.630;2023-06-05T01:36:16;100567.59;;;14.73;66.37
77939;BME280;67136;47.546;21.630;2023-06-05T01:39:21;100571.72;;;14.75;66.07
77939;BME280;67136;47.546;21.630;2023-06-05T01:42:25;100569.53;;;14.71;66.02
77939;BME280;67136;47.546;21.630;2023-06-05T01:45:28;100573.28;;;14.68;65.91
77939;BME280;67136;47.546;21.630;2023-06-05T01:48:33;100567.91;;;14.60;66.29
77939;BME280;67136;47.546;21.630;2023-06-05T01:51:36;100570.16;;;14.55;66.36
77939;BME280;67136;47.546;21.630;2023-06-05T01:54:39;100579.44;;;14.50;66.84
77939;BME280;67136;47.546;21.630;2023-06-05T01:57:44;100574.06;;;14.51;66.38
77939;BME280;67136;47.546;21.630;2023-06-05T02:00:47;100574.91;;;14.42;66.48
77939;BME280;67136;47.546;21.630;2023-06-05T02:03:52;100567.88;;;14.33;66.77
77939;BME280;67136;47.546;21.630;2023-06-05T02:06:56;100572.06;;;14.26;67.11
77939;BME280;67136;47.546;21.630;2023-06-05T02:10:07;100574.12;;;14.23;67.16
77939;BME280;67136;47.546;21.630;2023-06-05T02:13:10;100564.19;;;14.26;66.71
77939;BME280;67136;47.546;21.630;2023-06-05T02:16:13;100566.37;;;14.21;66.74
77939;BME280;67136;47.546;21.630;2023-06-05T02:19:17;100563.06;;;14.10;66.86
77939;BME280;67136;47.546;21.630;2023-06-05T02:22:21;100560.88;;;14.05;66.73
77939;BME280;67136;47.546;21.630;2023-06-05T02:25:25;100570.00;;;14.01;66.76
77939;BME280;67136;47.546;21.630;2023-06-05T02:28:29;100562.53;;;13.97;66.54
77939;BME280;67136;47.546;21.630;2023-06-05T02:31:33;100566.44;;;13.93;66.54
77939;BME280;67136;47.546;21.630;2023-06-05T02:34:36;100574.44;;;13.91;67.30
77939;BME280;67136;47.546;21.630;2023-06-05T02:37:41;100563.94;;;13.82;67.04
77939;BME280;67136;47.546;21.630;2023-06-05T02:40:46;100568.38;;;13.81;67.06
77939;BME280;67136;47.546;21.630;2023-06-05T02:43:49;100563.41;;;13.78;67.33
77939;BME280;67136;47.546;21.630;2023-06-05T02:46:52;100565.91;;;13.70;67.42
77939;BME280;67136;47.546;21.630;2023-06-05T02:49:57;100574.19;;;13.56;68.50
77939;BME280;67136;47.546;21.630;2023-06-05T02:52:59;100565.38;;;13.57;68.06
77939;BME280;67136;47.546;21.630;2023-06-05T02:56:03;100576.41;;;13.51;68.67
77939;BME280;67136;47.546;21.630;2023-06-05T02:59:06;100571.16;;;13.51;67.79
77939;BME280;67136;47.546;21.630;2023-06-05T03:02:10;100572.56;;;13.45;68.07
77939;BME280;67136;47.546;21.630;2023-06-05T03:05:17;100576.97;;;13.45;68.13
77939;BME280;67136;47.546;21.630;2023-06-05T03:08:20;100570.31;;;13.41;68.49
77939;BME280;67136;47.546;21.630;2023-06-05T03:11:24;100572.53;;;13.36;68.01
77939;BME280;67136;47.546;21.630;2023-06-05T03:14:28;100565.63;;;13.35;68.07
77939;BME280;67136;47.546;21.630;2023-06-05T03:17:33;100562.31;;;13.33;68.08
77939;BME280;67136;47.546;21.630;2023-06-05T03:20:36;100570.59;;;13.38;67.29
77939;BME280;67136;47.546;21.630;2023-06-05T03:23:41;100561.78;;;13.39;66.91
77939;BME280;67136;47.546;21.630;2023-06-05T03:26:45;100559.56;;;13.44;66.57
77939;BME280;67136;47.546;21.630;2023-06-05T03:29:48;100557.59;;;13.46;66.50
77939;BME280;67136;47.546;21.630;2023-06-05T03:32:50;100567.84;;;13.49;66.37
77939;BME280;67136;47.546;21.630;2023-06-05T03:35:53;100567.00;;;13.58;65.82
77939;BME280;67136;47.546;21.630;2023-06-05T03:38:59;100560.66;;;13.70;65.27
77939;BME280;67136;47.546;21.630;2023-06-05T03:42:02;100571.69;;;13.83;64.91
77939;BME280;67136;47.546;21.630;2023-06-05T03:45:06;100572.22;;;13.96;64.33
77939;BME280;67136;47.546;21.630;2023-06-05T03:48:11;100570.53;;;14.05;64.25
77939;BME280;67136;47.546;21.630;2023-06-05T03:51:15;100572.19;;;14.15;64.08
77939;BME280;67136;47.546;21.630;2023-06-05T03:54:20;100573.88;;;14.26;63.78
77939;BME280;67136;47.546;21.630;2023-06-05T03:57:28;100576.91;;;14.31;63.73
77939;BME280;67136;47.546;21.630;2023-06-05T04:00:31;100571.34;;;14.34;63.56
77939;BME280;67136;47.546;21.630;2023-06-05T04:03:34;100576.28;;;14.46;63.25
77939;BME280;67136;47.546;21.630;2023-06-05T04:06:40;100569.31;;;14.55;62.84
77939;BME280;67136;47.546;21.630;2023-06-05T04:09:43;100570.94;;;14.65;62.57
77939;BME280;67136;47.546;21.630;2023-06-05T04:12:46;100575.34;;;14.74;62.41
77939;BME280;67136;47.546;21.630;2023-06-05T04:15:49;100576.94;;;14.85;62.17
77939;BME280;67136;47.546;21.630;2023-06-05T04:18:52;100579.91;;;15.00;61.51
77939;BME280;67136;47.546;21.630;2023-06-05T04:21:55;100575.09;;;15.13;60.86
77939;BME280;67136;47.546;21.630;2023-06-05T04:25:00;100578.06;;;15.27;58.83
77939;BME280;67136;47.546;21.630;2023-06-05T04:28:03;100580.75;;;15.45;58.22
77939;BME280;67136;47.546;21.630;2023-06-05T04:31:05;100586.16;;;15.61;58.39
77939;BME280;67136;47.546;21.630;2023-06-05T04:34:08;100585.94;;;15.72;58.31
77939;BME280;67136;47.546;21.630;2023-06-05T04:37:11;100580.41;;;15.83;58.33
77939;BME280;67136;47.546;21.630;2023-06-05T04:40:16;100577.19;;;15.89;58.36
77939;BME280;67136;47.546;21.630;2023-06-05T04:43:19;100579.19;;;15.95;58.38
77939;BME280;67136;47.546;21.630;2023-06-05T04:46:22;100588.31;;;16.00;58.48
77939;BME280;67136;47.546;21.630;2023-06-05T04:49:25;100581.88;;;16.03;58.38
77939;BME280;67136;47.546;21.630;2023-06-05T04:52:32;100581.28;;;16.09;55.67
77939;BME280;67136;47.546;21.630;2023-06-05T04:55:35;100586.97;;;16.22;54.05
77939;BME280;67136;47.546;21.630;2023-06-05T04:58:38;100589.34;;;16.33;53.72
77939;BME280;67136;47.546;21.630;2023-06-05T05:01:41;100600.34;;;16.46;53.54
77939;BME280;67136;47.546;21.630;2023-06-05T05:04:46;100598.78;;;16.61;53.04
77939;BME280;67136;47.546;21.630;2023-06-05T05:07:49;100596.03;;;16.79;52.92
77939;BME280;67136;47.546;21.630;2023-06-05T05:10:53;100593.66;;;16.93;52.94
77939;BME280;67136;47.546;21.630;2023-06-05T05:13:56;100602.91;;;17.05;52.74
77939;BME280;67136;47.546;21.630;2023-06-05T05:16:59;100599.00;;;17.25;52.06
77939;BME280;67136;47.546;21.630;2023-06-05T05:20:04;100596.91;;;17.37;51.13
77939;BME280;67136;47.546;21.630;2023-06-05T05:23:10;100598.81;;;17.61;49.67
77939;BME280;67136;47.546;21.630;2023-06-05T05:26:12;100600.78;;;17.67;49.37
77939;BME280;67136;47.546;21.630;2023-06-05T05:29:16;100608.72;;;17.83;48.99
77939;BME280;67136;47.546;21.630;2023-06-05T05:32:18;100597.31;;;18.14;48.86
77939;BME280;67136;47.546;21.630;2023-06-05T05:35:22;100595.78;;;18.36;48.68
77939;BME280;67136;47.546;21.630;2023-06-05T05:38:25;100595.22;;;18.56;48.16
77939;BME280;67136;47.546;21.630;2023-06-05T05:41:28;100595.41;;;18.63;47.04
77939;BME280;67136;47.546;21.630;2023-06-05T05:44:31;100596.16;;;18.80;46.89
77939;BME280;67136;47.546;21.630;2023-06-05T05:47:34;100590.34;;;18.84;47.01
77939;BME280;67136;47.546;21.630;2023-06-05T05:50:37;100589.22;;;19.09;47.60
77939;BME280;67136;47.546;21.630;2023-06-05T05:53:41;100584.12;;;19.38;47.04
77939;BME280;67136;47.546;21.630;2023-06-05T05:56:44;100580.44;;;19.85;46.40
77939;BME280;67136;47.546;21.630;2023-06-05T05:59:47;100580.66;;;20.20;45.61
77939;BME280;67136;47.546;21.630;2023-06-05T06:02:50;100573.91;;;20.61;44.69
77939;BME280;67136;47.546;21.630;2023-06-05T06:05:55;100584.34;;;20.77;44.40
77939;BME280;67136;47.546;21.630;2023-06-05T06:08:59;100585.13;;;21.07;43.76
77939;BME280;67136;47.546;21.630;2023-06-05T06:12:03;100581.03;;;21.82;42.44
77939;BME280;67136;47.546;21.630;2023-06-05T06:15:08;100584.06;;;22.56;41.18
77939;BME280;67136;47.546;21.630;2023-06-05T06:18:11;100589.34;;;23.30;40.49
77939;BME280;67136;47.546;21.630;2023-06-05T06:21:14;100580.38;;;24.29;38.55
77939;BME280;67136;47.546;21.630;2023-06-05T06:24:18;100579.50;;;25.19;37.21
77939;BME280;67136;47.546;21.630;2023-06-05T06:27:24;100582.53;;;25.29;36.44
77939;BME280;67136;47.546;21.630;2023-06-05T06:30:30;100579.13;;;25.53;34.40
77939;BME280;67136;47.546;21.630;2023-06-05T06:33:36;100573.69;;;25.91;35.03
77939;BME280;67136;47.546;21.630;2023-06-05T06:36:40;100580.53;;;26.36;33.58
77939;BME280;67136;47.546;21.630;2023-06-05T06:39:43;100579.53;;;26.12;33.83
77939;BME280;67136;47.546;21.630;2023-06-05T06:42:46;100576.56;;;26.20;32.68
77939;BME280;67136;47.546;21.630;2023-06-05T06:45:49;100579.84;;;26.22;32.90
77939;BME280;67136;47.546;21.630;2023-06-05T06:48:53;100571.31;;;26.86;31.37
77939;BME280;67136;47.546;21.630;2023-06-05T06:51:56;100575.50;;;27.59;31.36
77939;BME280;67136;47.546;21.630;2023-06-05T06:54:59;100574.22;;;27.62;31.03
77939;BME280;67136;47.546;21.630;2023-06-05T06:58:02;100574.47;;;27.60;31.01
77939;BME280;67136;47.546;21.630;2023-06-05T07:01:05;100565.22;;;27.68;31.12
77939;BME280;67136;47.546;21.630;2023-06-05T07:04:09;100562.75;;;26.77;32.69
77939;BME280;67136;47.546;21.630;2023-06-05T07:07:16;100570.75;;;27.32;32.25
77939;BME280;67136;47.546;21.630;2023-06-05T07:10:20;100565.31;;;28.37;30.79
77939;BME280;67136;47.546;21.630;2023-06-05T07:13:23;100560.97;;;28.59;30.63
77939;BME280;67136;47.546;21.630;2023-06-05T07:16:25;100556.03;;;29.07;30.58
77939;BME280;67136;47.546;21.630;2023-06-05T07:19:29;100551.19;;;29.21;29.82
77939;BME280;67136;47.546;21.630;2023-06-05T07:22:32;100558.03;;;28.26;30.84
77939;BME280;67136;47.546;21.630;2023-06-05T07:25:35;100557.25;;;29.73;29.07
77939;BME280;67136;47.546;21.630;2023-06-05T07:28:40;100557.69;;;29.81;28.90
77939;BME280;67136;47.546;21.630;2023-06-05T07:31:43;100563.22;;;29.75;28.81
77939;BME280;67136;47.546;21.630;2023-06-05T07:34:46;100566.25;;;30.11;28.27
77939;BME280;67136;47.546;21.630;2023-06-05T07:37:49;100560.97;;;30.76;27.08
77939;BME280;67136;47.546;21.630;2023-06-05T07:40:51;100565.25;;;31.20;26.59
77939;BME280;67136;47.546;21.630;2023-06-05T07:43:54;100563.94;;;31.44;26.41
77939;BME280;67136;47.546;21.630;2023-06-05T07:46:57;100565.16;;;30.67;26.04
77939;BME280;67136;47.546;21.630;2023-06-05T07:50:00;100575.28;;;31.73;25.51
77939;BME280;67136;47.546;21.630;2023-06-05T07:53:05;100561.22;;;30.96;25.42
77939;BME280;67136;47.546;21.630;2023-06-05T07:56:08;100563.66;;;31.78;25.02
77939;BME280;67136;47.546;21.630;2023-06-05T07:59:11;100570.94;;;31.45;25.77
77939;BME280;67136;47.546;21.630;2023-06-05T08:02:17;100562.63;;;32.15;24.95
77939;BME280;67136;47.546;21.630;2023-06-05T08:05:20;100566.81;;;31.96;24.39
77939;BME280;67136;47.546;21.630;2023-06-05T08:08:22;100558.56;;;33.41;23.17
77939;BME280;67136;47.546;21.630;2023-06-05T08:11:26;100558.56;;;33.41;22.91
77939;BME280;67136;47.546;21.630;2023-06-05T08:14:29;100555.03;;;33.36;23.30
77939;BME280;67136;47.546;21.630;2023-06-05T08:17:32;100562.03;;;32.50;22.87
77939;BME280;67136;47.546;21.630;2023-06-05T08:20:34;100557.28;;;32.77;21.99
77939;BME280;67136;47.546;21.630;2023-06-05T08:23:40;100563.09;;;32.44;22.04
77939;BME280;67136;47.546;21.630;2023-06-05T08:26:43;100551.47;;;33.20;21.51
77939;BME280;67136;47.546;21.630;2023-06-05T08:29:47;100548.81;;;34.21;20.96
77939;BME280;67136;47.546;21.630;2023-06-05T08:32:50;100561.06;;;33.73;21.19
77939;BME280;67136;47.546;21.630;2023-06-05T08:35:53;100547.66;;;33.01;21.38
77939;BME280;67136;47.546;21.630;2023-06-05T08:38:55;100559.53;;;32.38;22.60
77939;BME280;67136;47.546;21.630;2023-06-05T08:41:58;100549.09;;;32.57;22.74
77939;BME280;67136;47.546;21.630;2023-06-05T08:45:08;100545.06;;;33.46;21.17
77939;BME280;67136;47.546;21.630;2023-06-05T08:48:13;100547.34;;;32.36;22.40
77939;BME280;67136;47.546;21.630;2023-06-05T08:51:18;100549.84;;;34.35;20.75
77939;BME280;67136;47.546;21.630;2023-06-05T08:54:21;100550.31;;;34.67;20.38
77939;BME280;67136;47.546;21.630;2023-06-05T08:57:24;100553.22;;;35.39;19.75
77939;BME280;67136;47.546;21.630;2023-06-05T09:00:27;100544.19;;;36.11;18.92
77939;BME280;67136;47.546;21.630;2023-06-05T09:03:32;100549.37;;;34.96;19.15
77939;BME280;67136;47.546;21.630;2023-06-05T09:06:35;100531.72;;;34.89;18.56
77939;BME280;67136;47.546;21.630;2023-06-05T09:09:38;100539.75;;;35.91;17.61
77939;BME280;67136;47.546;21.630;2023-06-05T09:15:56;100536.34;;;33.79;19.19
77939;BME280;67136;47.546;21.630;2023-06-05T09:18:59;100533.56;;;33.04;20.15
77939;BME280;67136;47.546;21.630;2023-06-05T09:22:01;100539.50;;;34.57;19.06
77939;BME280;67136;47.546;21.630;2023-06-05T09:25:04;100531.53;;;35.96;17.56
77939;BME280;67136;47.546;21.630;2023-06-05T09:28:07;100531.41;;;37.01;16.93
77939;BME280;67136;47.546;21.630;2023-06-05T09:31:10;100534.19;;;35.39;17.26
77939;BME280;67136;47.546;21.630;2023-06-05T09:34:24;100532.22;;;35.50;17.20
77939;BME280;67136;47.546;21.630;2023-06-05T09:37:34;100531.72;;;34.20;18.23
77939;BME280;67136;47.546;21.630;2023-06-05T09:40:38;100522.84;;;35.94;16.95
77939;BME280;67136;47.546;21.630;2023-06-05T09:43:42;100525.75;;;34.87;18.18
77939;BME280;67136;47.546;21.630;2023-06-05T09:50:00;100525.13;;;35.05;17.89
77939;BME280;67136;47.546;21.630;2023-06-05T09:53:05;100522.03;;;36.65;15.84
77939;BME280;67136;47.546;21.630;2023-06-05T09:56:12;100517.91;;;36.91;16.20
77939;BME280;67136;47.546;21.630;2023-06-05T09:59:20;100530.28;;;34.38;17.39
77939;BME280;67136;47.546;21.630;2023-06-05T10:02:27;100521.31;;;35.50;17.05
77939;BME280;67136;47.546;21.630;2023-06-05T10:05:37;100524.81;;;36.12;16.54
77939;BME280;67136;47.546;21.630;2023-06-05T10:08:40;100517.66;;;36.45;16.36
77939;BME280;67136;47.546;21.630;2023-06-05T10:11:48;100519.91;;;35.52;16.16
77939;BME280;67136;47.546;21.630;2023-06-05T10:14:51;100522.50;;;36.24;16.17
77939;BME280;67136;47.546;21.630;2023-06-05T10:17:55;100515.69;;;36.27;15.97
77939;BME280;67136;47.546;21.630;2023-06-05T10:20:58;100512.16;;;37.80;15.13
77939;BME280;67136;47.546;21.630;2023-06-05T10:24:04;100506.44;;;39.12;14.34
77939;BME280;67136;47.546;21.630;2023-06-05T10:33:40;100494.97;;;37.29;15.83
77939;BME280;67136;47.546;21.630;2023-06-05T10:37:23;100499.19;;;37.03;15.68
77939;BME280;67136;47.546;21.630;2023-06-05T10:40:30;100488.53;;;38.16;15.06
77939;BME280;67136;47.546;21.630;2023-06-05T10:43:45;100486.62;;;36.41;16.84
77939;BME280;67136;47.546;21.630;2023-06-05T10:46:49;100475.22;;;37.00;15.83
77939;BME280;67136;47.546;21.630;2023-06-05T10:50:19;100481.25;;;37.34;15.57
77939;BME280;67136;47.546;21.630;2023-06-05T10:53:41;100480.56;;;36.91;15.36
77939;BME280;67136;47.546;21.630;2023-06-05T11:00:05;100472.91;;;38.58;14.63
77939;BME280;67136;47.546;21.630;2023-06-05T11:03:09;100473.72;;;38.44;14.56
77939;BME280;67136;47.546;21.630;2023-06-05T11:06:12;100466.72;;;39.15;14.03
77939;BME280;67136;47.546;21.630;2023-06-05T11:09:15;100461.63;;;38.23;14.84
77939;BME280;67136;47.546;21.630;2023-06-05T11:12:18;100460.94;;;39.16;14.44
77939;BME280;67136;47.546;21.630;2023-06-05T11:15:40;100460.06;;;38.94;14.29
77939;BME280;67136;47.546;21.630;2023-06-05T11:18:43;100460.34;;;38.57;14.72
77939;BME280;67136;47.546;21.630;2023-06-05T11:28:40;100464.53;;;39.78;13.98
77939;BME280;67136;47.546;21.630;2023-06-05T11:31:43;100459.06;;;40.09;13.11
77939;BME280;67136;47.546;21.630;2023-06-05T11:34:46;100467.00;;;39.57;13.56
77939;BME280;67136;47.546;21.630;2023-06-05T11:38:09;100464.81;;;39.68;13.25
77939;BME280;67136;47.546;21.630;2023-06-05T11:41:13;100455.75;;;42.12;11.66
77939;BME280;67136;47.546;21.630;2023-06-05T11:44:16;100464.19;;;39.71;13.46
77939;BME280;67136;47.546;21.630;2023-06-05T11:47:32;100460.44;;;39.01;13.69
77939;BME280;67136;47.546;21.630;2023-06-05T11:50:41;100452.31;;;39.84;13.43
77939;BME280;67136;47.546;21.630;2023-06-05T11:53:54;100452.69;;;40.30;13.13
77939;BME280;67136;47.546;21.630;2023-06-05T11:56:59;100448.41;;;40.16;12.97
77939;BME280;67136;47.546;21.630;2023-06-05T12:00:13;100444.25;;;40.74;12.49
77939;BME280;67136;47.546;21.630;2023-06-05T12:03:20;100447.06;;;40.35;12.89
77939;BME280;67136;47.546;21.630;2023-06-05T12:06:23;100441.75;;;38.45;13.96
77939;BME280;67136;47.546;21.630;2023-06-05T12:09:26;100433.37;;;36.06;16.03
77939;BME280;67136;47.546;21.630;2023-06-05T12:12:29;100425.66;;;38.30;14.33
77939;BME280;67136;47.546;21.630;2023-06-05T12:15:32;100417.88;;;38.37;14.51
77939;BME280;67136;47.546;21.630;2023-06-05T12:18:36;100417.44;;;38.43;14.36
77939;BME280;67136;47.546;21.630;2023-06-05T12:21:39;100422.44;;;38.77;14.11
77939;BME280;67136;47.546;21.630;2023-06-05T12:24:41;100424.25;;;38.82;14.32
77939;BME280;67136;47.546;21.630;2023-06-05T12:27:45;100409.87;;;38.40;14.39
77939;BME280;67136;47.546;21.630;2023-06-05T12:30:47;100416.16;;;38.77;14.03
77939;BME280;67136;47.546;21.630;2023-06-05T12:33:50;100400.94;;;39.28;13.45
77939;BME280;67136;47.546;21.630;2023-06-05T12:36:53;100399.06;;;39.68;13.21
77939;BME280;67136;47.546;21.630;2023-06-05T12:39:58;100395.19;;;38.36;14.54
77939;BME280;67136;47.546;21.630;2023-06-05T12:43:01;100395.41;;;37.72;15.06
77939;BME280;67136;47.546;21.630;2023-06-05T12:46:05;100387.94;;;38.18;14.79
77939;BME280;67136;47.546;21.630;2023-06-05T12:49:08;100390.84;;;38.08;14.86
77939;BME280;67136;47.546;21.630;2023-06-05T12:52:11;100390.06;;;38.71;14.48
77939;BME280;67136;47.546;21.630;2023-06-05T12:55:13;100376.94;;;39.56;13.82
77939;BME280;67136;47.546;21.630;2023-06-05T12:58:16;100366.63;;;39.53;13.62
77939;BME280;67136;47.546;21.630;2023-06-05T13:01:19;100358.38;;;38.07;14.58
77939;BME280;67136;47.546;21.630;2023-06-05T13:04:22;100363.25;;;37.96;14.93
77939;BME280;67136;47.546;21.630;2023-06-05T13:07:24;100355.53;;;37.44;15.20
77939;BME280;67136;47.546;21.630;2023-06-05T13:10:27;100355.97;;;36.50;16.23
77939;BME280;67136;47.546;21.630;2023-06-05T13:13:30;100356.41;;;36.94;15.62
77939;BME280;67136;47.546;21.630;2023-06-05T13:16:36;100348.44;;;38.24;14.59
77939;BME280;67136;47.546;21.630;2023-06-05T13:19:38;100344.84;;;35.85;16.35
77939;BME280;67136;47.546;21.630;2023-06-05T13:22:41;100353.84;;;37.16;15.47
77939;BME280;67136;47.546;21.630;2023-06-05T13:25:43;100346.06;;;37.23;15.59
77939;BME280;67136;47.546;21.630;2023-06-05T13:28:47;100351.69;;;37.45;15.27
77939;BME280;67136;47.546;21.630;2023-06-05T13:31:50;100349.66;;;37.37;15.34
77939;BME280;67136;47.546;21.630;2023-06-05T13:34:53;100344.59;;;37.44;15.19
77939;BME280;67136;47.546;21.630;2023-06-05T13:37:56;100330.69;;;36.07;16.53
77939;BME280;67136;47.546;21.630;2023-06-05T13:40:59;100336.81;;;36.73;16.06
77939;BME280;67136;47.546;21.630;2023-06-05T13:44:01;100326.19;;;35.97;16.63
77939;BME280;67136;47.546;21.630;2023-06-05T13:47:05;100329.16;;;35.25;17.21
77939;BME280;67136;47.546;21.630;2023-06-05T13:50:11;100332.22;;;35.47;16.89
77939;BME280;67136;47.546;21.630;2023-06-05T13:53:14;100334.75;;;35.39;16.93
77939;BME280;67136;47.546;21.630;2023-06-05T13:56:16;100335.69;;;35.53;16.82
77939;BME280;67136;47.546;21.630;2023-06-05T13:59:19;100340.25;;;34.66;17.72
77939;BME280;67136;47.546;21.630;2023-06-05T14:02:22;100316.25;;;36.06;16.18
77939;BME280;67136;47.546;21.630;2023-06-05T14:05:26;100330.53;;;34.12;18.33
77939;BME280;67136;47.546;21.630;2023-06-05T14:08:28;100322.00;;;35.05;17.26
77939;BME280;67136;47.546;21.630;2023-06-05T14:11:32;100317.09;;;34.74;17.77
77939;BME280;67136;47.546;21.630;2023-06-05T14:14:34;100318.22;;;33.60;18.53
77939;BME280;67136;47.546;21.630;2023-06-05T14:17:37;100317.25;;;34.54;17.67
77939;BME280;67136;47.546;21.630;2023-06-05T14:20:39;100314.81;;;34.09;18.42
77939;BME280;67136;47.546;21.630;2023-06-05T14:23:42;100307.97;;;34.60;18.00
77939;BME280;67136;47.546;21.630;2023-06-05T14:26:45;100305.34;;;33.96;18.70
77939;BME280;67136;47.546;21.630;2023-06-05T14:29:49;100296.81;;;33.54;19.33
77939;BME280;67136;47.546;21.630;2023-06-05T14:32:52;100305.88;;;32.94;19.74
77939;BME280;67136;47.546;21.630;2023-06-05T14:35:55;100293.38;;;32.88;19.57
77939;BME280;67136;47.546;21.630;2023-06-05T14:38:58;100296.25;;;31.44;21.11
77939;BME280;67136;47.546;21.630;2023-06-05T14:42:01;100291.09;;;31.01;21.40
77939;BME280;67136;47.546;21.630;2023-06-05T14:45:04;100288.94;;;31.40;21.04
77939;BME280;67136;47.546;21.630;2023-06-05T14:48:07;100293.69;;;31.28;21.10
77939;BME280;67136;47.546;21.630;2023-06-05T14:51:13;100286.56;;;31.53;20.54
77939;BME280;67136;47.546;21.630;2023-06-05T14:54:16;100282.41;;;30.63;21.33
77939;BME280;67136;47.546;21.630;2023-06-05T14:57:18;100287.34;;;30.44;21.93
77939;BME280;67136;47.546;21.630;2023-06-05T15:00:21;100288.59;;;30.63;21.75
77939;BME280;67136;47.546;21.630;2023-06-05T15:03:24;100275.91;;;30.64;21.65
77939;BME280;67136;47.546;21.630;2023-06-05T15:06:27;100282.06;;;30.54;21.95
77939;BME280;67136;47.546;21.630;2023-06-05T15:09:30;100288.09;;;30.13;22.16
77939;BME280;67136;47.546;21.630;2023-06-05T15:12:33;100287.25;;;30.34;22.00
77939;BME280;67136;47.546;21.630;2023-06-05T15:15:36;100276.16;;;29.22;22.73
77939;BME280;67136;47.546;21.630;2023-06-05T15:18:40;100272.81;;;29.15;23.19
77939;BME280;67136;47.546;21.630;2023-06-05T15:21:43;100267.94;;;29.12;23.20
77939;BME280;67136;47.546;21.630;2023-06-05T15:24:47;100266.78;;;29.08;23.34
77939;BME280;67136;47.546;21.630;2023-06-05T15:27:49;100264.16;;;29.13;23.44
77939;BME280;67136;47.546;21.630;2023-06-05T15:30:54;100267.56;;;29.25;24.16
77939;BME280;67136;47.546;21.630;2023-06-05T15:33:57;100266.63;;;29.15;24.29
77939;BME280;67136;47.546;21.630;2023-06-05T15:36:59;100258.75;;;29.13;24.28
77939;BME280;67136;47.546;21.630;2023-06-05T15:40:02;100265.72;;;28.93;24.92
77939;BME280;67136;47.546;21.630;2023-06-05T15:43:09;100263.91;;;28.82;25.11
77939;BME280;67136;47.546;21.630;2023-06-05T15:46:15;100264.50;;;28.67;24.55
77939;BME280;67136;47.546;21.630;2023-06-05T15:49:18;100265.91;;;28.42;24.84
77939;BME280;67136;47.546;21.630;2023-06-05T15:52:20;100262.03;;;28.49;24.83
77939;BME280;67136;47.546;21.630;2023-06-05T15:55:23;100257.84;;;27.97;25.93
77939;BME280;67136;47.546;21.630;2023-06-05T15:58:26;100249.56;;;28.15;25.52
77939;BME280;67136;47.546;21.630;2023-06-05T16:01:29;100247.00;;;27.92;25.91
77939;BME280;67136;47.546;21.630;2023-06-05T16:04:32;100247.41;;;27.61;26.28
77939;BME280;67136;47.546;21.630;2023-06-05T16:07:36;100246.84;;;27.47;26.47
77939;BME280;67136;47.546;21.630;2023-06-05T16:10:39;100243.72;;;27.39;26.99
77939;BME280;67136;47.546;21.630;2023-06-05T16:13:42;100247.25;;;27.05;27.29